Time;durP1;ratioP1;P1;durP2;ratioP2;P2;SDS_P1;SDS_P2;PMS_P1;PMS_P2;Temp;Humidity;BMP_temperature;BMP_pressure;BME280_temperature;BME280_humidity;BME280_pressure;Samples;Min_cycle;Max_cycle;Signal;HPM_P1;HPM_P2
2022/03/10 00:01:50;;;;;;;20.88;14.20;;;4.00;99.90;;;;;;4940131;29;20296;-87
2022/03/10 00:04:17;;;;;;;22.63;13.85;;;4.00;99.90;;;;;;4948149;29;20215;-87
2022/03/10 00:06:45;;;;;;;21.42;14.23;;;3.90;99.90;;;;;;4961916;28;20197;-87
2022/03/10 00:09:13;;;;;;;25.30;13.00;;;4.00;1.00;;;;;;4962189;28;20175;-87
2022/03/10 00:11:40;;;;;;;24.67;14.80;;;3.90;1.00;;;;;;4962181;28;20206;-86
2022/03/10 00:14:06;;;;;;;23.88;14.60;;;3.60;99.90;;;;;;4962126;28;20190;-86
2022/03/10 00:16:33;;;;;;;21.75;14.65;;;3.80;99.90;;;;;;4961823;28;20230;-85
2022/03/10 00:19:00;;;;;;;20.33;13.68;;;3.60;99.90;;;;;;4961846;28;20194;-85
2022/03/10 00:21:26;;;;;;;21.88;13.48;;;3.70;99.90;;;;;;4960524;28;20222;-86
2022/03/10 00:23:53;;;;;;;23.50;16.38;;;;;;;;;;4958407;29;20247;-86
2022/03/10 00:26:21;;;;;;;19.60;13.18;;;3.60;99.90;;;;;;4959108;29;20227;-87
2022/03/10 00:28:48;;;;;;;26.98;14.25;;;3.60;99.90;;;;;;4959889;29;20187;-87
2022/03/10 00:31:14;;;;;;;20.33;14.32;;;3.50;99.90;;;;;;4950734;29;20203;-87
2022/03/10 00:33:41;;;;;;;26.92;15.02;;;3.40;99.90;;;;;;4939584;29;20227;-88
2022/03/10 00:36:07;;;;;;;23.65;13.95;;;3.40;99.90;;;;;;4942010;29;20239;-88
2022/03/10 00:38:34;;;;;;;20.52;15.20;;;3.40;99.90;;;;;;4941370;29;20207;-88
2022/03/10 00:41:01;;;;;;;25.15;15.60;;;3.20;99.90;;;;;;4940274;29;20203;-88
2022/03/10 00:43:29;;;;;;;22.13;13.45;;;3.20;99.90;;;;;;4939585;29;20811;-88
2022/03/10 00:45:55;;;;;;;25.67;14.90;;;3.20;99.90;;;;;;4939257;29;20262;-88
2022/03/10 00:48:22;;;;;;;24.10;14.95;;;3.30;99.90;;;;;;4938678;29;20622;-88
2022/03/10 00:50:48;;;;;;;18.42;12.52;;;3.10;99.90;;;;;;4938513;29;20239;-87
2022/03/10 00:53:15;;;;;;;26.60;15.30;;;3.00;99.90;;;;;;4938544;29;20246;-88
2022/03/10 00:55:42;;;;;;;21.88;14.27;;;2.90;99.90;;;;;;4939699;29;20231;-88
2022/03/10 00:58:09;;;;;;;23.67;14.70;;;2.80;99.90;;;;;;4940506;29;20211;-88
2022/03/10 01:00:37;;;;;;;24.42;13.75;;;3.00;99.90;;;;;;4938793;29;20243;-88
2022/03/10 01:03:05;;;;;;;26.08;15.43;;;3.00;99.90;;;;;;4940013;29;20634;-87
2022/03/10 01:05:31;;;;;;;20.15;13.05;;;3.10;99.90;;;;;;4940260;29;20801;-87
2022/03/10 01:07:58;;;;;;;23.15;16.15;;;3.10;99.90;;;;;;4939686;29;20211;-88
2022/03/10 01:10:24;;;;;;;22.25;15.55;;;3.00;99.90;;;;;;4954554;29;20191;-88
2022/03/10 01:12:53;;;;;;;20.20;14.77;;;3.10;99.90;;;;;;4958529;29;20670;-87
2022/03/10 01:15:22;;;;;;;25.55;14.52;;;3.10;99.90;;;;;;4959683;28;20276;-87
2022/03/10 01:17:50;;;;;;;26.67;15.45;;;3.10;98.10;;;;;;4950115;29;20199;-86
2022/03/10 01:20:18;;;;;;;21.50;14.95;;;3.00;99.90;;;;;;4940269;29;20262;-88
2022/03/10 01:22:44;;;;;;;24.00;14.55;;;3.00;99.90;;;;;;4938731;29;20235;-86
2022/03/10 01:25:11;;;;;;;22.27;14.75;;;2.90;99.90;;;;;;4939207;29;20341;-87
2022/03/10 01:27:38;;;;;;;27.13;15.82;;;2.90;99.90;;;;;;4938736;29;20235;-87
2022/03/10 01:30:06;;;;;;;32.63;16.13;;;2.80;99.90;;;;;;4938573;29;20203;-88
2022/03/10 01:32:34;;;;;;;24.83;16.35;;;2.70;99.90;;;;;;4939139;29;20211;-87
2022/03/10 01:35:02;;;;;;;32.53;15.57;;;2.40;1.00;;;;;;4939559;29;20331;-87
2022/03/10 01:37:29;;;;;;;20.65;14.45;;;2.50;99.90;;;;;;4939889;29;20270;-87
2022/03/10 01:39:55;;;;;;;28.52;16.58;;;2.50;1.00;;;;;;4938718;29;20299;-87
2022/03/10 01:42:23;;;;;;;23.85;16.42;;;2.70;99.90;;;;;;4938980;29;20238;-87
2022/03/10 01:44:53;;;;;;;23.98;15.70;;;2.70;1.00;;;;;;4938526;29;20231;-87
2022/03/10 01:47:20;;;;;;;23.35;15.88;;;2.80;1.00;;;;;;4939403;29;20203;-87
2022/03/10 01:49:46;;;;;;;25.17;15.23;;;2.60;99.90;;;;;;4950940;29;20211;-86
2022/03/10 01:52:16;;;;;;;23.55;15.93;;;2.80;99.90;;;;;;4963331;28;20203;-86
2022/03/10 01:54:43;;;;;;;23.10;16.42;;;2.70;99.90;;;;;;4970455;23;20235;-85
2022/03/10 01:57:11;;;;;;;24.48;16.90;;;2.80;99.90;;;;;;4960862;29;20667;-88
2022/03/10 01:59:40;;;;;;;22.77;15.88;;;2.80;99.90;;;;;;4961379;28;20207;-86
2022/03/10 02:02:07;;;;;;;31.92;18.13;;;2.70;99.90;;;;;;4962290;29;20249;-86
2022/03/10 02:04:34;;;;;;;24.17;17.50;;;2.70;99.90;;;;;;4961755;28;20211;-86
2022/03/10 02:07:03;;;;;;;26.33;17.05;;;2.70;99.90;;;;;;4953399;29;20210;-87
2022/03/10 02:12:16;;;;;;;28.00;16.77;;;2.70;99.90;;;;;;4954230;29;20605;-86
2022/03/10 02:17:27;;;;;;;25.17;15.43;;;2.60;99.90;;;;;;4950502;29;20239;-86
2022/03/10 02:19:55;;;;;;;22.42;15.82;;;2.20;99.90;;;;;;4950347;29;20231;-86
2022/03/10 02:22:24;;;;;;;27.85;15.90;;;2.40;99.90;;;;;;4951196;29;20209;-86
2022/03/10 02:24:52;;;;;;;24.45;16.08;;;2.40;99.90;;;;;;4953363;29;20235;-86
2022/03/10 02:27:20;;;;;;;30.92;16.80;;;2.40;99.90;;;;;;4951531;29;20199;-86
2022/03/10 02:29:48;;;;;;;26.95;16.42;;;2.50;99.90;;;;;;4957654;29;20581;-86
2022/03/10 02:32:16;;;;;;;26.58;17.90;;;2.40;99.90;;;;;;4961986;29;20192;-84
2022/03/10 02:34:43;;;;;;;26.83;16.33;;;2.40;99.90;;;;;;4961545;28;20266;-85
2022/03/10 02:37:11;;;;;;;27.15;16.35;;;2.00;99.90;;;;;;4958375;29;20306;-85
2022/03/10 02:39:39;;;;;;;24.92;15.13;;;2.30;99.90;;;;;;4958861;29;20243;-86
2022/03/10 02:42:08;;;;;;;28.05;16.80;;;2.20;99.90;;;;;;4957433;29;20203;-85
2022/03/10 02:44:34;;;;;;;24.33;18.75;;;2.20;99.90;;;;;;4959246;28;20218;-86
2022/03/10 02:47:01;;;;;;;25.30;16.60;;;2.10;99.90;;;;;;4962930;28;20199;-85
2022/03/10 02:49:27;;;;;;;31.52;17.67;;;2.00;99.90;;;;;;4962235;28;20187;-85
2022/03/10 02:51:54;;;;;;;30.90;17.13;;;2.30;99.90;;;;;;4947597;29;20207;-86
2022/03/10 02:54:21;;;;;;;23.83;16.90;;;2.40;99.90;;;;;;4949015;29;20239;-86
2022/03/10 02:56:48;;;;;;;27.27;16.77;;;2.10;99.90;;;;;;4945037;29;20649;-86
2022/03/10 02:59:15;;;;;;;22.73;15.77;;;2.20;99.90;;;;;;4941529;29;20238;-87
2022/03/10 03:01:42;;;;;;;28.27;16.45;;;2.10;99.90;;;;;;4942264;29;20239;-86
2022/03/10 03:04:09;;;;;;;27.17;16.65;;;;;;;;;;4943444;29;20211;-84
2022/03/10 03:06:35;;;;;;;27.25;17.80;;;2.20;99.90;;;;;;4952491;29;20191;-86
2022/03/10 03:09:02;;;;;;;30.55;18.25;;;2.50;99.90;;;;;;4961016;29;20247;-85
2022/03/10 03:11:28;;;;;;;27.25;16.42;;;2.20;99.90;;;;;;4955288;28;20191;-86
2022/03/10 03:13:57;;;;;;;26.02;16.65;;;2.10;99.90;;;;;;4943367;29;20223;-86
2022/03/10 03:16:24;;;;;;;25.13;17.88;;;2.10;99.90;;;;;;4943534;29;20318;-86
2022/03/10 03:18:52;;;;;;;31.02;17.30;;;2.10;99.90;;;;;;4946466;29;20250;-86
2022/03/10 03:21:19;;;;;;;27.33;17.67;;;2.10;99.90;;;;;;4948459;29;20207;-87
2022/03/10 03:23:46;;;;;;;40.95;18.50;;;2.20;99.90;;;;;;4949616;29;20211;-86
2022/03/10 03:26:12;;;;;;;29.73;18.70;;;2.10;99.90;;;;;;4949381;29;20227;-87
2022/03/10 03:28:39;;;;;;;29.50;17.55;;;2.10;99.90;;;;;;4949985;29;20235;-87
2022/03/10 03:31:07;;;;;;;28.13;18.23;;;2.10;99.90;;;;;;4955867;29;20231;-85
2022/03/10 03:33:34;;;;;;;29.15;17.25;;;2.10;99.90;;;;;;4957456;29;20206;-86
2022/03/10 03:36:00;;;;;;;27.83;17.38;;;2.00;99.90;;;;;;4950339;29;20255;-86
2022/03/10 03:38:27;;;;;;;25.88;15.13;;;2.00;99.90;;;;;;4949047;29;20574;-86
2022/03/10 03:40:53;;;;;;;24.23;16.48;;;2.00;99.90;;;;;;4952569;29;20211;-86
2022/03/10 03:43:20;;;;;;;24.95;16.25;;;2.00;99.90;;;;;;4947748;29;20585;-85
2022/03/10 03:45:47;;;;;;;24.60;16.35;;;1.80;99.90;;;;;;4947515;29;20230;-86
2022/03/10 03:48:15;;;;;;;26.20;17.60;;;1.80;99.90;;;;;;4946643;29;20214;-85
2022/03/10 03:50:41;;;;;;;30.65;17.58;;;2.00;99.90;;;;;;4948008;29;20215;-86
2022/03/10 03:53:08;;;;;;;30.25;18.00;;;1.90;99.90;;;;;;4947940;29;20262;-87
2022/03/10 03:55:34;;;;;;;31.23;16.75;;;2.00;99.90;;;;;;4948119;29;20242;-87
2022/03/10 03:58:01;;;;;;;37.75;19.27;;;2.00;99.90;;;;;;4948980;29;20299;-85
2022/03/10 04:00:28;;;;;;;26.80;17.35;;;1.90;99.90;;;;;;4949278;29;20215;-86
2022/03/10 04:02:54;;;;;;;30.08;19.20;;;1.90;99.90;;;;;;4949289;29;20259;-86
2022/03/10 04:05:22;;;;;;;29.02;18.33;;;1.90;99.90;;;;;;4948342;29;20234;-86
2022/03/10 04:07:49;;;;;;;29.33;16.80;;;1.80;99.90;;;;;;4947633;29;20209;-87
2022/03/10 04:10:17;;;;;;;31.77;18.13;;;1.80;99.90;;;;;;4948629;29;20278;-87
2022/03/10 04:12:44;;;;;;;36.63;18.45;;;1.90;99.90;;;;;;4947711;29;20213;-87
2022/03/10 04:15:10;;;;;;;25.20;16.60;;;1.70;99.90;;;;;;4946989;29;20241;-87
2022/03/10 04:17:37;;;;;;;22.70;16.83;;;1.70;99.90;;;;;;4946898;29;20226;-86
2022/03/10 04:20:08;;;;;;;28.35;17.23;;;1.80;99.90;;;;;;4950694;29;20258;-86
2022/03/10 04:22:36;;;;;;;28.50;16.55;;;1.70;99.90;;;;;;4948252;29;20635;-86
2022/03/10 04:25:03;;;;;;;33.20;18.17;;;1.70;99.90;;;;;;4960860;28;20218;-85
2022/03/10 04:27:30;;;;;;;32.25;17.88;;;1.70;99.90;;;;;;4960408;28;20219;-85
2022/03/10 04:29:56;;;;;;;30.02;18.20;;;1.70;99.90;;;;;;4949314;28;20207;-87
2022/03/10 04:32:23;;;;;;;31.02;19.35;;;1.70;99.90;;;;;;4944644;29;20206;-87
2022/03/10 04:34:49;;;;;;;27.65;17.08;;;1.60;99.90;;;;;;4944524;29;20542;-86
2022/03/10 04:37:16;;;;;;;24.05;16.30;;;1.70;99.90;;;;;;4945739;29;20227;-87
2022/03/10 04:39:44;;;;;;;30.42;18.00;;;1.70;99.90;;;;;;4947910;29;20353;-87
2022/03/10 04:42:11;;;;;;;29.65;17.25;;;1.60;99.90;;;;;;4947970;29;20223;-87
2022/03/10 04:44:37;;;;;;;30.63;18.17;;;1.70;99.90;;;;;;4946418;29;20290;-86
2022/03/10 04:47:05;;;;;;;30.20;17.95;;;1.70;99.90;;;;;;4946566;29;20233;-86
2022/03/10 04:49:31;;;;;;;27.33;18.02;;;;;;;;;;4948735;29;20211;-86
2022/03/10 04:51:58;;;;;;;30.67;17.60;;;1.60;99.90;;;;;;4945439;29;20231;-87
2022/03/10 04:54:25;;;;;;;33.43;20.07;;;1.40;99.90;;;;;;4943986;29;20504;-87
2022/03/10 04:56:53;;;;;;;38.17;20.45;;;2.10;99.90;;;;;;4944885;29;20486;-87
2022/03/10 04:59:19;;;;;;;32.38;17.90;;;1.60;99.90;;;;;;4947514;29;20207;-86
2022/03/10 05:01:46;;;;;;;31.60;18.60;;;1.50;99.90;;;;;;4945897;29;20491;-86
2022/03/10 05:04:13;;;;;;;32.97;19.05;;;1.50;99.90;;;;;;4948348;29;20447;-86
2022/03/10 05:06:39;;;;;;;29.63;16.83;;;1.50;99.90;;;;;;4950129;29;20266;-86
2022/03/10 05:09:06;;;;;;;29.65;18.20;;;1.50;99.90;;;;;;4949635;29;20214;-87
2022/03/10 05:11:32;;;;;;;25.75;17.65;;;1.10;99.90;;;;;;4950257;29;20206;-87
2022/03/10 05:14:00;;;;;;;30.60;19.17;;;1.40;99.90;;;;;;4949736;29;20229;-85
2022/03/10 05:16:27;;;;;;;28.63;16.67;;;1.20;99.90;;;;;;4946605;29;20247;-86
2022/03/10 05:18:54;;;;;;;27.75;17.02;;;1.20;99.90;;;;;;4946878;29;20300;-86
2022/03/10 05:21:20;;;;;;;25.05;17.33;;;1.10;99.90;;;;;;4946871;29;20235;-86
2022/03/10 05:23:47;;;;;;;30.75;17.77;;;1.10;99.90;;;;;;4947901;29;20207;-86
2022/03/10 05:26:13;;;;;;;35.90;20.70;;;1.20;99.90;;;;;;4949834;29;20234;-85
2022/03/10 05:28:40;;;;;;;28.02;19.20;;;1.20;99.90;;;;;;4961283;29;20210;-84
2022/03/10 05:31:08;;;;;;;30.95;19.98;;;;;;;;;;4958267;29;20238;-85
2022/03/10 05:33:35;;;;;;;34.65;21.45;;;1.30;99.90;;;;;;4944837;29;20504;-85
2022/03/10 05:36:01;;;;;;;36.22;20.88;;;1.60;99.90;;;;;;4947021;29;20290;-86
2022/03/10 05:38:28;;;;;;;30.50;19.20;;;1.20;99.90;;;;;;4946776;29;20215;-85
2022/03/10 05:40:55;;;;;;;36.30;18.73;;;1.10;99.90;;;;;;4947732;29;20605;-87
2022/03/10 05:43:21;;;;;;;29.38;18.88;;;1.60;99.90;;;;;;4948722;29;20210;-87
2022/03/10 05:45:48;;;;;;;36.03;20.15;;;1.20;99.90;;;;;;4949723;29;20231;-87
2022/03/10 05:48:16;;;;;;;33.08;19.27;;;1.10;99.90;;;;;;4950075;29;20258;-87
2022/03/10 05:50:42;;;;;;;29.58;18.50;;;1.20;99.90;;;;;;4950545;29;20215;-86
2022/03/10 05:53:09;;;;;;;31.27;18.80;;;0.90;99.90;;;;;;4954413;29;20203;-86
2022/03/10 05:55:36;;;;;;;37.72;20.00;;;1.30;99.90;;;;;;4955562;28;20223;-86
2022/03/10 05:58:04;;;;;;;27.30;17.42;;;1.20;99.90;;;;;;4962689;28;21085;-84
2022/03/10 06:00:31;;;;;;;30.75;17.88;;;0.90;99.90;;;;;;4962558;28;20184;-85
2022/03/10 06:02:57;;;;;;;30.60;17.90;;;1.20;99.90;;;;;;4945694;29;20211;-86
2022/03/10 06:05:25;;;;;;;32.60;17.48;;;1.20;99.90;;;;;;4947199;29;20230;-86
2022/03/10 06:07:52;;;;;;;32.60;18.58;;;1.10;99.90;;;;;;4949193;29;20225;-88
2022/03/10 06:10:18;;;;;;;53.88;19.45;;;1.10;99.90;;;;;;4950464;29;20607;-88
2022/03/10 06:12:45;;;;;;;31.45;18.33;;;1.30;99.90;;;;;;4949943;29;20199;-87
2022/03/10 06:15:12;;;;;;;33.17;19.30;;;1.20;99.90;;;;;;4949530;29;20254;-87
2022/03/10 06:17:39;;;;;;;39.50;20.13;;;1.20;99.90;;;;;;4953727;29;20227;-86
2022/03/10 06:20:07;;;;;;;37.70;20.60;;;1.20;99.90;;;;;;4958394;28;20202;-86
2022/03/10 06:22:35;;;;;;;34.03;18.23;;;1.20;99.90;;;;;;4956041;29;20202;-86
2022/03/10 06:25:03;;;;;;;36.55;17.95;;;1.40;99.90;;;;;;4953018;29;20612;-87
2022/03/10 06:27:29;;;;;;;33.40;19.58;;;1.30;99.90;;;;;;4947419;29;20254;-87
2022/03/10 06:29:56;;;;;;;31.08;18.90;;;1.20;99.90;;;;;;4948442;29;20235;-87
2022/03/10 06:32:25;;;;;;;29.65;18.48;;;1.00;99.90;;;;;;4949370;29;20207;-86
2022/03/10 06:34:52;;;;;;;33.95;19.60;;;1.20;99.90;;;;;;4949186;29;20242;-88
2022/03/10 06:37:20;;;;;;;33.72;21.20;;;1.90;99.90;;;;;;4949164;29;20223;-88
2022/03/10 06:39:48;;;;;;;37.78;20.83;;;1.30;99.90;;;;;;4951381;29;20207;-87
2022/03/10 06:42:15;;;;;;;31.42;19.73;;;1.40;99.90;;;;;;4952313;29;20211;-87
2022/03/10 06:44:42;;;;;;;40.90;20.63;;;1.40;99.90;;;;;;4948732;29;20313;-87
2022/03/10 06:47:10;;;;;;;34.83;19.58;;;1.40;99.90;;;;;;4950147;29;20203;-86
2022/03/10 06:49:37;;;;;;;33.42;20.15;;;1.40;99.90;;;;;;4951988;29;20677;-86
2022/03/10 06:52:05;;;;;;;36.60;20.65;;;1.40;99.90;;;;;;4949953;29;20203;-87
2022/03/10 06:54:32;;;;;;;36.45;20.50;;;1.50;99.90;;;;;;4952325;29;20239;-86
2022/03/10 06:57:00;;;;;;;37.17;21.50;;;1.50;99.90;;;;;;4951874;29;20243;-86
2022/03/10 06:59:27;;;;;;;29.35;19.40;;;1.50;99.90;;;;;;4951664;29;20298;-86
2022/03/10 07:01:53;;;;;;;35.03;19.90;;;1.60;99.90;;;;;;4952158;29;20199;-86
2022/03/10 07:04:21;;;;;;;32.05;19.30;;;1.50;99.90;;;;;;4947772;29;20206;-86
2022/03/10 07:06:47;;;;;;;33.33;20.50;;;2.00;99.90;;;;;;4954315;29;20210;-86
2022/03/10 07:09:14;;;;;;;38.03;20.88;;;0.70;99.90;;;;;;4948988;29;20204;-86
2022/03/10 07:11:40;;;;;;;32.83;21.10;;;1.90;99.90;;;;;;4948754;29;20203;-86
2022/03/10 07:17:35;;;;;;;39.67;21.48;;;2.20;99.90;;;;;;4940073;29;20215;-87
2022/03/10 07:20:02;;;;;;;35.80;20.80;;;;;;;;;;4954655;29;20199;-87
2022/03/10 07:22:28;;;;;;;40.30;22.88;;;2.20;99.90;;;;;;4955889;29;20227;-87
2022/03/10 07:24:55;;;;;;;41.75;20.45;;;2.30;99.90;;;;;;4956810;28;20295;-87
2022/03/10 07:27:25;;;;;;;34.15;21.23;;;2.40;99.90;;;;;;4950715;29;20778;-87
2022/03/10 07:29:52;;;;;;;51.13;22.80;;;1.60;99.90;;;;;;4947299;29;20214;-87
2022/03/10 07:32:18;;;;;;;31.65;20.55;;;2.50;99.90;;;;;;4943699;29;20213;-86
2022/03/10 07:34:47;;;;;;;32.60;19.67;;;2.80;99.90;;;;;;4943819;29;20231;-86
2022/03/10 07:37:14;;;;;;;32.28;20.25;;;2.70;99.90;;;;;;4944652;29;20274;-86
2022/03/10 07:39:41;;;;;;;41.33;21.23;;;2.80;99.90;;;;;;4944338;29;20235;-86
2022/03/10 07:42:08;;;;;;;39.88;22.02;;;2.90;99.90;;;;;;4948803;29;20566;-86
2022/03/10 07:44:34;;;;;;;43.47;23.65;;;2.90;99.90;;;;;;4946307;29;20234;-87
2022/03/10 07:47:01;;;;;;;36.50;20.55;;;3.10;99.90;;;;;;4950758;29;20204;-87
2022/03/10 07:49:29;;;;;;;43.20;18.88;;;2.90;99.90;;;;;;4952958;29;20211;-86
2022/03/10 07:52:01;;;;;;;34.88;21.58;;;3.10;99.90;;;;;;4950274;29;20217;-88
2022/03/10 07:54:28;;;;;;;23.67;17.02;;;3.60;99.90;;;;;;4946475;29;20302;-86
2022/03/10 07:56:55;;;;;;;42.50;19.67;;;;;;;;;;4958686;29;20240;-86
2022/03/10 07:59:23;;;;;;;35.13;19.50;;;3.60;99.90;;;;;;4956644;29;20243;-86
2022/03/10 08:01:50;;;;;;;39.05;21.70;;;3.50;99.90;;;;;;4954475;29;20222;-85
2022/03/10 08:04:16;;;;;;;32.97;19.67;;;4.10;99.90;;;;;;4942327;29;20207;-86
2022/03/10 08:06:43;;;;;;;29.00;18.90;;;3.90;99.90;;;;;;4944807;29;20211;-87
2022/03/10 08:09:11;;;;;;;30.90;17.77;;;3.90;99.90;;;;;;4945237;29;20239;-87
2022/03/10 08:11:39;;;;;;;32.83;18.10;;;4.00;99.90;;;;;;4943649;29;20218;-87
2022/03/10 08:14:05;;;;;;;28.33;18.75;;;4.00;99.90;;;;;;4944054;29;20211;-87
2022/03/10 08:16:32;;;;;;;33.78;18.95;;;4.10;99.90;;;;;;4943832;29;20247;-87
2022/03/10 08:18:59;;;;;;;29.92;20.15;;;4.20;99.90;;;;;;4944982;29;20227;-87
2022/03/10 08:21:26;;;;;;;30.00;17.73;;;4.20;99.90;;;;;;4940108;29;20207;-86
2022/03/10 08:23:53;;;;;;;34.67;19.80;;;4.30;99.90;;;;;;4939819;29;20686;-86
2022/03/10 08:26:21;;;;;;;29.30;19.92;;;4.40;99.90;;;;;;4940846;29;20227;-86
2022/03/10 08:28:51;;;;;;;35.47;19.80;;;4.40;99.90;;;;;;4951038;29;20203;-86
2022/03/10 08:31:18;;;;;;;32.20;19.38;;;4.50;99.90;;;;;;4952274;29;20284;-86
2022/03/10 08:33:44;;;;;;;30.55;19.35;;;4.50;99.90;;;;;;4944629;29;20221;-87
2022/03/10 08:36:11;;;;;;;35.35;20.20;;;4.60;99.90;;;;;;4943780;29;20588;-87
2022/03/10 08:38:38;;;;;;;34.13;21.17;;;4.70;99.90;;;;;;4945772;29;20222;-87
2022/03/10 08:41:04;;;;;;;30.15;18.27;;;5.20;99.90;;;;;;4951622;29;20682;-86
2022/03/10 08:43:33;;;;;;;37.05;19.23;;;5.00;99.90;;;;;;4940339;29;20208;-86
2022/03/10 08:46:01;;;;;;;34.30;20.55;;;5.10;99.90;;;;;;4946427;29;20792;-86
2022/03/10 08:48:28;;;;;;;36.70;21.75;;;5.20;99.90;;;;;;4948679;28;20234;-86
2022/03/10 08:50:55;;;;;;;35.28;19.00;;;5.40;99.90;;;;;;4953373;29;20211;-86
2022/03/10 08:53:21;;;;;;;32.95;21.65;;;5.50;99.90;;;;;;4948780;29;20245;-86
2022/03/10 08:55:48;;;;;;;29.20;19.17;;;5.60;99.90;;;;;;4947269;29;20227;-86
2022/03/10 08:58:14;;;;;;;30.52;19.38;;;5.60;99.90;;;;;;4953157;29;20259;-86
2022/03/10 09:00:43;;;;;;;35.00;21.70;;;5.70;99.90;;;;;;4953620;29;20227;-86
2022/03/10 09:03:09;;;;;;;34.58;20.80;;;5.80;99.90;;;;;;4953805;29;20207;-86
2022/03/10 09:05:37;;;;;;;33.00;18.58;;;5.80;99.90;;;;;;4946756;29;20669;-85
2022/03/10 09:08:05;;;;;;;38.05;19.65;;;5.80;99.90;;;;;;4951194;29;20211;-85
2022/03/10 09:10:31;;;;;;;34.22;19.70;;;5.70;99.90;;;;;;4955993;29;20198;-85
2022/03/10 09:12:59;;;;;;;31.13;21.13;;;5.90;99.90;;;;;;4956511;29;20211;-86
2022/03/10 09:15:27;;;;;;;38.55;19.83;;;6.00;99.90;;;;;;4955472;29;20234;-85
2022/03/10 09:17:55;;;;;;;30.52;19.90;;;6.00;99.90;;;;;;4957675;29;20298;-86
2022/03/10 09:20:22;;;;;;;37.63;23.30;;;6.10;99.90;;;;;;4958054;29;20207;-85
2022/03/10 09:22:52;;;;;;;32.38;20.95;;;6.10;99.90;;;;;;4958504;28;20183;-86
2022/03/10 09:25:19;;;;;;;33.58;19.30;;;6.30;99.90;;;;;;4948637;29;20258;-86
2022/03/10 09:27:46;;;;;;;29.52;20.25;;;6.30;99.90;;;;;;4947676;29;20347;-86
2022/03/10 09:30:13;;;;;;;28.80;19.50;;;6.30;99.90;;;;;;4944517;29;20215;-86
2022/03/10 09:32:42;;;;;;;28.67;19.92;;;6.30;99.90;;;;;;4944328;29;20234;-86
2022/03/10 09:35:12;;;;;;;34.08;19.85;;;6.70;99.90;;;;;;4943613;29;20549;-86
2022/03/10 09:37:43;;;;;;;31.73;20.70;;;6.60;99.90;;;;;;4945648;29;20211;-85
2022/03/10 09:40:11;;;;;;;31.38;19.50;;;6.70;99.90;;;;;;4947943;29;20239;-87
2022/03/10 09:42:39;;;;;;;29.50;18.95;;;6.70;99.90;;;;;;4946386;29;20203;-88
2022/03/10 09:45:08;;;;;;;35.03;21.83;;;6.80;99.90;;;;;;4944639;29;20227;-85
2022/03/10 09:47:37;;;;;;;32.90;21.70;;;6.90;99.90;;;;;;4943860;29;20211;-87
2022/03/10 09:50:05;;;;;;;30.65;18.48;;;7.20;99.90;;;;;;4943052;29;20266;-87
2022/03/10 09:52:37;;;;;;;32.88;20.35;;;6.90;99.90;;;;;;4944364;29;20223;-87
2022/03/10 09:55:08;;;;;;;32.28;20.25;;;7.10;99.90;;;;;;4941310;29;20234;-86
2022/03/10 09:57:39;;;;;;;34.30;20.00;;;7.00;99.90;;;;;;4944401;29;20226;-87
2022/03/10 10:00:07;;;;;;;31.85;21.42;;;9.40;99.90;;;;;;4940347;29;20223;-85
2022/03/10 10:02:37;;;;;;;27.08;18.13;;;7.00;99.90;;;;;;4945645;29;20211;-86
2022/03/10 10:05:18;;;;;;;27.80;19.73;;;7.00;99.90;;;;;;4948771;29;20226;-86
2022/03/10 10:08:02;;;;;;;26.77;19.13;;;6.90;99.90;;;;;;4951885;29;20259;-85
2022/03/10 10:10:31;;;;;;;30.90;20.52;;;7.10;99.90;;;;;;4954764;29;20184;-85
2022/03/10 10:13:05;;;;;;;30.15;19.08;;;;;;;;;;4955004;29;20262;-86
2022/03/10 10:15:38;;;;;;;28.33;21.33;;;7.30;99.90;;;;;;4955316;29;20321;-86
2022/03/10 10:20:51;;;;;;;29.73;20.23;;;7.00;99.90;;;;;;4951059;29;20236;-87
2022/03/10 10:23:26;;;;;;;25.60;18.60;;;7.10;99.90;;;;;;4954384;29;20211;-85
2022/03/10 10:25:58;;;;;;;29.10;18.70;;;7.10;99.90;;;;;;4953443;29;20258;-85
2022/03/10 10:28:31;;;;;;;27.17;18.52;;;7.00;99.90;;;;;;4954766;29;20219;-84
2022/03/10 10:31:02;;;;;;;27.20;17.75;;;7.00;99.90;;;;;;4956835;29;20190;-85
2022/03/10 10:33:33;;;;;;;27.75;18.63;;;7.10;99.90;;;;;;4957314;29;20202;-87
2022/03/10 10:36:19;;;;;;;32.58;18.70;;;7.20;99.90;;;;;;4956535;29;20245;-86
2022/03/10 10:38:51;;;;;;;29.40;19.10;;;7.50;99.90;;;;;;4956449;29;20235;-86
2022/03/10 10:41:23;;;;;;;26.20;17.85;;;7.30;99.90;;;;;;4957510;29;20191;-87
2022/03/10 10:43:54;;;;;;;28.88;19.45;;;7.60;99.90;;;;;;4957665;28;20209;-86
2022/03/10 10:46:29;;;;;;;27.55;18.50;;;7.70;99.90;;;;;;4955745;29;20259;-86
2022/03/10 10:48:57;;;;;;;28.48;18.50;;;7.80;99.90;;;;;;4955759;29;20207;-88
2022/03/10 10:51:33;;;;;;;26.60;17.67;;;8.00;99.90;;;;;;4955918;29;20210;-85
2022/03/10 10:54:09;;;;;;;26.20;18.30;;;7.80;99.90;;;;;;4956196;28;20494;-87
2022/03/10 10:56:48;;;;;;;22.27;17.48;;;7.70;99.90;;;;;;4954240;29;20227;-86
2022/03/10 10:59:32;;;;;;;25.52;18.05;;;8.00;99.90;;;;;;4960556;29;20239;-87
2022/03/10 11:02:12;;;;;;;22.88;16.75;;;8.30;99.90;;;;;;4959271;29;20215;-87
2022/03/10 11:04:45;;;;;;;22.20;17.13;;;8.20;99.90;;;;;;4960824;28;20231;-87
2022/03/10 11:07:13;;;;;;;22.67;15.00;;;8.50;99.90;;;;;;4957787;29;20425;-86
2022/03/10 11:09:46;;;;;;;22.70;16.80;;;8.60;99.90;;;;;;4957264;29;20536;-87
2022/03/10 11:12:16;;;;;;;20.90;13.20;;;8.50;99.90;;;;;;4954699;29;20414;-86
2022/03/10 11:14:47;;;;;;;18.47;15.77;;;8.10;99.90;;;;;;4956817;28;20480;-88
2022/03/10 11:17:15;;;;;;;19.90;14.50;;;8.30;99.90;;;;;;4952877;29;20442;-87
2022/03/10 11:19:44;;;;;;;18.00;14.17;;;8.70;99.90;;;;;;4941711;29;20490;-87
2022/03/10 11:22:28;;;;;;;19.40;13.07;;;8.30;99.90;;;;;;4954183;28;20444;-87
2022/03/10 11:25:34;;;;;;;18.43;13.87;;;8.50;99.90;;;;;;4961476;28;20471;-86
2022/03/10 11:28:04;;;;;;;17.17;12.30;;;8.50;99.90;;;;;;4961684;28;20463;-86
2022/03/10 11:30:33;;;;;;;17.57;13.27;;;8.50;99.90;;;;;;4961388;28;20426;-85
2022/03/10 11:33:06;;;;;;;15.87;12.63;;;8.40;99.90;;;;;;4957885;28;20456;-86
2022/03/10 11:35:39;;;;;;;17.90;12.70;;;8.10;99.90;;;;;;4945181;29;20446;-86
2022/03/10 11:38:06;;;;;;;19.33;12.40;;;8.00;99.90;;;;;;4947391;29;20525;-86
2022/03/10 11:40:43;;;;;;;17.77;13.27;;;7.90;99.90;;;;;;4953596;29;20514;-86
2022/03/10 11:43:11;;;;;;;20.70;13.33;;;8.00;99.90;;;;;;4960715;28;20451;-86
2022/03/10 11:45:38;;;;;;;16.87;13.60;;;7.90;99.90;;;;;;4956105;29;20449;-86
2022/03/10 11:48:36;;;;;;;20.03;13.50;;;7.80;99.90;;;;;;4952905;29;20790;-87
2022/03/10 11:51:13;;;;;;;18.50;14.40;;;7.50;99.90;;;;;;4943806;29;20468;-87
2022/03/10 11:54:05;;;;;;;19.93;13.03;;;7.70;99.90;;;;;;4945960;29;20498;-88
2022/03/10 11:56:58;;;;;;;18.00;13.07;;;7.80;99.90;;;;;;4942256;29;20549;-88
2022/03/10 11:59:27;;;;;;;22.37;16.07;;;7.80;99.90;;;;;;4943517;29;20475;-87
2022/03/10 12:01:55;;;;;;;18.93;13.20;;;7.70;99.90;;;;;;4942185;29;20433;-88
2022/03/10 12:04:22;;;;;;;15.60;13.43;;;7.90;99.90;;;;;;4942462;29;20849;-87
2022/03/10 12:06:54;;;;;;;16.40;12.80;;;8.10;99.90;;;;;;4946935;29;20454;-86
2022/03/10 12:09:29;;;;;;;15.80;12.87;;;8.20;99.90;;;;;;4945577;29;20414;-87
2022/03/10 12:12:13;;;;;;;20.40;14.20;;;8.10;99.90;;;;;;4947554;29;20446;-86
2022/03/10 12:14:39;;;;;;;19.97;13.63;;;8.20;99.90;;;;;;4960152;28;20502;-86
2022/03/10 12:17:07;;;;;;;14.63;12.00;;;;;;;;;;4959354;28;20431;-87
2022/03/10 12:20:11;;;;;;;15.48;13.00;;;8.00;99.90;;;;;;4960204;28;20222;-87
2022/03/10 12:22:38;;;;;;;16.38;13.50;;;8.00;99.90;;;;;;4957497;28;20203;-87
2022/03/10 12:25:20;;;;;;;17.57;12.50;;;8.00;99.90;;;;;;4952830;29;20624;-87
2022/03/10 12:27:52;;;;;;;15.20;12.98;;;8.00;99.90;;;;;;4948530;29;20473;-87
2022/03/10 12:30:28;;;;;;;21.13;13.47;;;8.30;99.90;;;;;;4956308;29;20239;-86
2022/03/10 12:32:57;;;;;;;20.10;16.23;;;8.20;99.90;;;;;;4937316;29;20410;-86
2022/03/10 12:35:29;;;;;;;21.43;15.77;;;7.90;99.90;;;;;;4950228;29;20227;-87
2022/03/10 12:37:56;;;;;;;18.17;14.43;;;8.60;99.90;;;;;;4954637;29;20426;-87
2022/03/10 12:40:25;;;;;;;14.53;12.53;;;8.40;99.90;;;;;;4944775;29;20461;-87
2022/03/10 12:42:59;;;;;;;16.27;13.97;;;8.60;99.90;;;;;;4944426;29;20531;-85
2022/03/10 12:45:27;;;;;;;16.13;13.87;;;8.30;99.90;;;;;;4945452;29;20518;-87
2022/03/10 12:48:00;;;;;;;18.60;14.07;;;8.40;99.90;;;;;;4945697;29;20512;-87
2022/03/10 12:50:26;;;;;;;22.23;14.80;;;8.30;99.90;;;;;;4945459;29;20439;-87
2022/03/10 12:52:55;;;;;;;18.03;14.57;;;8.30;99.90;;;;;;4943053;29;20459;-87
2022/03/10 12:55:26;;;;;;;19.40;13.80;;;8.30;99.90;;;;;;4943341;29;20628;-87
2022/03/10 12:57:58;;;;;;;27.10;18.10;;;8.30;99.90;;;;;;4943229;29;20470;-87